Time;durP1;ratioP1;P1;durP2;ratioP2;P2;SDS_P1;SDS_P2;PMS_P1;PMS_P2;Temp;Humidity;BMP_temperature;BMP_pressure;BME280_temperature;BME280_humidity;BME280_pressure;Samples;Min_cycle;Max_cycle;Signal;HPM_P1;HPM_P2
2022/11/20 00:01:15;;;;;;;25.40;19.08;;;3.50;99.90;;;;;;5053998;28;20217;-69
2022/11/20 00:03:41;;;;;;;22.75;17.67;;;3.50;99.90;;;;;;5048398;28;20257;-70
2022/11/20 00:06:10;;;;;;;25.25;18.33;;;3.50;99.90;;;;;;5052335;28;20177;-69
2022/11/20 00:08:36;;;;;;;25.00;18.58;;;3.50;99.90;;;;;;5036693;28;20193;-69
2022/11/20 00:11:07;;;;;;;28.90;20.13;;;3.60;99.90;;;;;;5052938;28;20188;-69
2022/11/20 00:13:33;;;;;;;25.48;17.45;;;3.70;99.90;;;;;;5049126;28;20263;-69
2022/11/20 00:16:00;;;;;;;23.60;18.40;;;3.60;99.90;;;;;;5051069;28;20209;-69
2022/11/20 00:18:27;;;;;;;23.27;17.85;;;3.70;99.90;;;;;;5053894;28;20906;-69
2022/11/20 00:20:53;;;;;;;24.58;18.65;;;3.70;99.90;;;;;;5053685;28;20220;-71
2022/11/20 00:23:19;;;;;;;23.80;18.50;;;3.80;99.90;;;;;;5051357;28;20184;-69
2022/11/20 00:25:44;;;;;;;21.13;17.23;;;3.80;99.90;;;;;;5050291;28;20242;-68
2022/11/20 00:28:10;;;;;;;24.50;18.50;;;3.80;99.90;;;;;;5047969;28;20791;-72
2022/11/20 00:30:36;;;;;;;27.70;19.60;;;3.80;99.90;;;;;;5048850;28;20269;-69
2022/11/20 00:33:01;;;;;;;26.83;18.13;;;3.90;99.90;;;;;;5046393;28;20182;-70
2022/11/20 00:35:27;;;;;;;22.83;18.10;;;3.90;99.90;;;;;;5038872;28;20213;-69
2022/11/20 00:37:53;;;;;;;21.57;16.90;;;3.90;99.90;;;;;;5034184;28;20175;-69
2022/11/20 00:40:18;;;;;;;24.27;18.57;;;4.00;99.90;;;;;;5033450;28;20730;-69
2022/11/20 00:42:44;;;;;;;23.07;18.43;;;4.00;99.90;;;;;;5037197;28;20802;-70
2022/11/20 00:45:10;;;;;;;22.63;17.70;;;4.10;99.90;;;;;;5049006;28;20577;-69
2022/11/20 00:47:35;;;;;;;25.17;18.27;;;4.10;99.90;;;;;;5053503;28;20280;-69
2022/11/20 00:50:01;;;;;;;27.07;19.60;;;4.10;99.90;;;;;;5052700;28;20180;-69
2022/11/20 00:52:27;;;;;;;26.97;19.27;;;4.10;99.90;;;;;;5050205;28;20654;-69
2022/11/20 00:54:52;;;;;;;27.87;19.63;;;4.10;99.90;;;;;;5047685;28;20542;-69
2022/11/20 00:57:18;;;;;;;24.97;17.80;;;4.20;99.90;;;;;;5052898;28;20228;-69
2022/11/20 00:59:44;;;;;;;26.10;19.20;;;4.20;99.90;;;;;;5043492;28;20207;-69
2022/11/20 01:02:09;;;;;;;26.47;18.13;;;4.20;99.90;;;;;;5050682;28;20185;-70
2022/11/20 01:04:35;;;;;;;26.17;18.93;;;4.20;99.90;;;;;;5048604;28;20213;-69
2022/11/20 01:07:01;;;;;;;25.63;18.20;;;4.20;99.90;;;;;;5051804;28;20236;-69
2022/11/20 01:09:26;;;;;;;21.77;18.27;;;4.20;99.90;;;;;;5053266;28;20186;-69
2022/11/20 01:11:52;;;;;;;21.70;18.50;;;4.20;99.90;;;;;;5053573;28;20192;-69
2022/11/20 01:14:19;;;;;;;25.60;18.20;;;4.20;99.90;;;;;;5047480;28;20270;-69
2022/11/20 01:16:50;;;;;;;23.30;18.13;;;4.10;99.90;;;;;;5035927;28;20188;-69
2022/11/20 01:19:21;;;;;;;24.95;18.50;;;4.10;99.90;;;;;;5042801;28;20810;-69
2022/11/20 01:21:53;;;;;;;24.30;18.10;;;4.10;99.90;;;;;;4999349;28;20181;-69
2022/11/20 01:24:21;;;;;;;20.08;17.13;;;4.10;99.90;;;;;;5044790;28;20185;-69
2022/11/20 01:26:49;;;;;;;22.98;18.13;;;4.20;99.90;;;;;;5053120;28;20691;-69
2022/11/20 01:29:24;;;;;;;21.58;17.30;;;4.20;99.90;;;;;;5051356;28;20516;-69
2022/11/20 01:31:51;;;;;;;25.60;17.48;;;4.20;99.90;;;;;;5052147;28;20231;-69
2022/11/20 01:34:19;;;;;;;23.90;18.17;;;4.20;99.90;;;;;;5045991;28;20266;-69
2022/11/20 01:36:46;;;;;;;24.65;19.45;;;4.20;99.90;;;;;;5050553;28;20174;-69
2022/11/20 01:39:21;;;;;;;23.85;17.77;;;4.20;99.90;;;;;;5051894;28;20217;-69
2022/11/20 01:44:54;;;;;;;23.65;17.73;;;4.30;99.90;;;;;;5039160;28;20646;-69
2022/11/20 01:47:35;;;;;;;25.98;19.30;;;4.30;99.90;;;;;;5032406;28;20154;-69
2022/11/20 01:50:04;;;;;;;23.25;18.00;;;4.30;99.90;;;;;;5031799;28;20171;-75
2022/11/20 01:52:36;;;;;;;22.90;16.95;;;4.30;99.90;;;;;;5032474;28;20189;-69
2022/11/20 01:55:07;;;;;;;23.52;18.33;;;4.30;99.90;;;;;;5047824;28;20543;-70
2022/11/20 01:57:35;;;;;;;22.10;17.75;;;4.30;99.90;;;;;;5052643;28;20327;-69
2022/11/20 02:00:07;;;;;;;24.23;18.38;;;4.40;99.90;;;;;;5051468;28;20210;-74
2022/11/20 02:02:34;;;;;;;23.77;17.60;;;4.40;99.90;;;;;;5047322;28;20349;-69
2022/11/20 02:05:07;;;;;;;26.30;18.67;;;4.40;99.90;;;;;;5047053;28;20244;-75
2022/11/20 02:07:33;;;;;;;28.67;20.23;;;4.40;99.90;;;;;;5052155;28;20229;-69
2022/11/20 02:09:58;;;;;;;27.50;18.37;;;4.50;99.90;;;;;;5052057;28;20192;-74
2022/11/20 02:15:09;;;;;;;23.13;18.67;;;4.50;99.90;;;;;;5049179;28;20182;-69
2022/11/20 02:17:35;;;;;;;22.63;17.85;;;4.50;99.90;;;;;;5051370;28;20186;-69
2022/11/20 02:20:00;;;;;;;24.07;19.00;;;4.50;99.90;;;;;;5050399;28;20232;-75
2022/11/20 02:22:38;;;;;;;27.30;18.60;;;4.50;99.90;;;;;;5032976;28;20197;-69
2022/11/20 02:25:06;;;;;;;21.88;17.83;;;4.60;99.90;;;;;;5041764;28;20189;-70
2022/11/20 02:27:32;;;;;;;23.65;18.95;;;4.60;99.90;;;;;;5052177;28;20704;-69
2022/11/20 02:30:02;;;;;;;29.13;21.50;;;4.60;99.90;;;;;;5051802;28;20186;-72
2022/11/20 02:32:30;;;;;;;23.55;17.75;;;4.60;99.90;;;;;;5049969;28;20185;-71
2022/11/20 02:34:56;;;;;;;22.23;16.95;;;4.60;99.90;;;;;;5047404;28;20213;-69
2022/11/20 02:37:26;;;;;;;22.50;18.13;;;4.60;99.90;;;;;;5050809;28;20255;-69
2022/11/20 02:39:52;;;;;;;29.00;19.15;;;4.70;99.90;;;;;;5051683;28;20296;-70
2022/11/20 02:42:18;;;;;;;22.93;17.83;;;4.70;99.90;;;;;;5049234;28;20305;-70
2022/11/20 02:44:44;;;;;;;27.95;18.00;;;4.60;99.90;;;;;;5045336;28;20428;-69
2022/11/20 02:47:10;;;;;;;23.03;17.70;;;4.60;99.90;;;;;;5051153;28;20181;-69
2022/11/20 02:49:35;;;;;;;22.70;18.40;;;4.70;99.90;;;;;;5050159;28;20240;-69
2022/11/20 02:52:01;;;;;;;24.30;18.43;;;4.70;99.90;;;;;;5051338;28;20277;-76
2022/11/20 02:54:27;;;;;;;23.67;17.87;;;4.70;99.90;;;;;;5044984;28;20182;-69
2022/11/20 02:56:53;;;;;;;24.97;19.30;;;4.80;99.90;;;;;;5051609;28;20231;-69
2022/11/20 02:59:19;;;;;;;26.30;18.33;;;4.70;99.90;;;;;;5050140;28;21043;-69
2022/11/20 03:01:44;;;;;;;24.20;17.50;;;4.70;99.90;;;;;;5050925;28;20204;-69
2022/11/20 03:04:10;;;;;;;24.80;18.00;;;4.80;99.90;;;;;;5020860;28;20646;-69
2022/11/20 03:06:36;;;;;;;23.30;17.30;;;4.80;99.90;;;;;;5051356;28;20229;-70
2022/11/20 03:09:02;;;;;;;24.87;18.00;;;4.80;99.90;;;;;;5050639;28;20240;-74
2022/11/20 03:11:28;;;;;;;22.02;16.92;;;4.90;99.90;;;;;;5051243;28;20186;-69
2022/11/20 03:13:54;;;;;;;25.13;17.92;;;4.90;99.90;;;;;;5043525;28;20197;-69
2022/11/20 03:16:21;;;;;;;25.10;18.03;;;4.90;99.90;;;;;;5050999;28;20689;-69
2022/11/20 03:18:48;;;;;;;21.15;16.75;;;4.90;99.90;;;;;;5052904;28;20174;-69
2022/11/20 03:21:15;;;;;;;21.75;17.95;;;4.90;99.90;;;;;;5054601;28;20182;-69
2022/11/20 03:23:41;;;;;;;22.77;17.90;;;4.90;99.90;;;;;;5048456;28;21656;-70
2022/11/20 03:26:09;;;;;;;21.33;17.20;;;4.90;99.90;;;;;;5053301;28;20173;-69
2022/11/20 03:28:34;;;;;;;24.00;17.50;;;4.90;99.90;;;;;;5054762;28;20820;-69
2022/11/20 03:31:09;;;;;;;25.73;18.87;;;4.90;99.90;;;;;;5054394;28;20182;-72
2022/11/20 03:33:35;;;;;;;22.85;18.00;;;4.90;99.90;;;;;;5050267;28;20268;-69
2022/11/20 03:36:05;;;;;;;21.97;16.17;;;4.80;99.90;;;;;;5052938;28;20262;-74
2022/11/20 03:38:31;;;;;;;22.88;17.60;;;4.80;99.90;;;;;;5055338;28;20171;-69
2022/11/20 03:41:10;;;;;;;21.77;16.60;;;4.80;99.90;;;;;;5054926;28;20534;-69
2022/11/20 03:43:36;;;;;;;23.35;17.40;;;4.90;99.90;;;;;;5050473;28;20193;-70
2022/11/20 03:46:03;;;;;;;24.58;17.73;;;4.80;99.90;;;;;;5035550;28;20218;-74
2022/11/20 03:48:29;;;;;;;22.77;17.35;;;4.80;99.90;;;;;;5038067;28;20243;-69
2022/11/20 03:51:13;;;;;;;19.55;16.08;;;4.80;99.90;;;;;;5054486;28;20182;-69
2022/11/20 03:53:40;;;;;;;24.05;17.17;;;4.80;99.90;;;;;;5048760;28;20182;-69
2022/11/20 03:56:07;;;;;;;22.45;17.15;;;4.70;99.90;;;;;;5035062;28;20190;-74
2022/11/20 03:58:36;;;;;;;18.73;15.50;;;4.70;99.90;;;;;;5039181;28;20204;-69
2022/11/20 04:01:08;;;;;;;20.98;15.57;;;4.70;99.90;;;;;;5053400;28;20209;-75
2022/11/20 04:03:34;;;;;;;22.08;16.13;;;4.80;99.90;;;;;;5050344;28;20178;-70
2022/11/20 04:06:14;;;;;;;19.45;15.68;;;4.80;99.90;;;;;;5052900;28;20642;-69
2022/11/20 04:08:40;;;;;;;20.10;15.45;;;4.70;99.90;;;;;;5054738;28;20283;-69
2022/11/20 04:11:19;;;;;;;21.27;14.38;;;4.70;99.90;;;;;;5052939;28;20193;-75
2022/11/20 04:13:56;;;;;;;17.50;14.45;;;4.70;99.90;;;;;;5050816;28;20180;-70
2022/11/20 04:16:23;;;;;;;20.85;16.48;;;4.70;99.90;;;;;;5033870;28;20196;-70
2022/11/20 04:18:57;;;;;;;21.27;15.50;;;4.80;99.90;;;;;;5034480;28;20264;-69
2022/11/20 04:21:24;;;;;;;23.30;16.35;;;4.80;99.90;;;;;;5015650;28;20229;-72
2022/11/20 04:23:52;;;;;;;23.08;16.85;;;4.80;99.90;;;;;;5048921;28;20208;-71
2022/11/20 04:26:18;;;;;;;24.73;16.70;;;4.80;99.90;;;;;;5052109;28;20188;-69
2022/11/20 04:28:44;;;;;;;23.40;17.17;;;4.80;99.90;;;;;;5054164;28;20184;-69
2022/11/20 04:31:13;;;;;;;20.40;16.20;;;4.90;99.90;;;;;;5051688;28;20186;-69
2022/11/20 04:33:39;;;;;;;22.25;18.10;;;4.90;99.90;;;;;;5043410;28;20186;-69
2022/11/20 04:36:15;;;;;;;25.10;17.85;;;4.90;99.90;;;;;;5034438;28;20650;-73
2022/11/20 04:38:42;;;;;;;24.58;17.00;;;5.00;99.90;;;;;;5034230;28;20547;-69
2022/11/20 04:41:18;;;;;;;25.67;18.15;;;5.10;99.90;;;;;;5033262;28;20175;-74
2022/11/20 04:43:48;;;;;;;21.75;17.42;;;5.00;99.90;;;;;;5042213;28;20179;-70
2022/11/20 04:46:15;;;;;;;22.10;17.40;;;5.00;99.90;;;;;;5052067;28;20185;-69
2022/11/20 04:48:40;;;;;;;23.75;17.70;;;5.00;99.90;;;;;;5053880;28;20254;-69
2022/11/20 04:51:06;;;;;;;19.20;16.10;;;5.10;99.90;;;;;;5051854;28;20591;-74
2022/11/20 04:53:32;;;;;;;22.70;18.02;;;5.10;99.90;;;;;;5046740;28;20208;-69
2022/11/20 04:56:03;;;;;;;20.93;17.10;;;5.20;99.90;;;;;;5051702;28;20253;-69
2022/11/20 04:58:29;;;;;;;21.00;15.63;;;5.20;99.90;;;;;;5053019;28;20193;-69
2022/11/20 05:01:05;;;;;;;21.60;16.00;;;5.20;99.90;;;;;;5053620;28;20201;-69
2022/11/20 05:03:31;;;;;;;20.02;16.40;;;5.20;99.90;;;;;;5048788;28;20482;-69
2022/11/20 05:06:01;;;;;;;22.17;16.17;;;5.20;99.90;;;;;;5033052;28;20208;-69
2022/11/20 05:08:26;;;;;;;24.80;17.17;;;5.20;99.90;;;;;;5052550;28;20455;-69
2022/11/20 05:10:52;;;;;;;18.83;15.60;;;5.30;99.90;;;;;;5053812;28;20261;-69
2022/11/20 05:13:18;;;;;;;24.33;16.27;;;5.30;99.90;;;;;;5048909;28;20265;-72
2022/11/20 05:15:43;;;;;;;21.40;16.70;;;5.30;99.90;;;;;;5049873;28;20181;-71
2022/11/20 05:18:09;;;;;;;20.87;16.73;;;5.30;99.90;;;;;;5051838;28;20178;-70
2022/11/20 05:20:36;;;;;;;20.07;15.23;;;5.30;99.90;;;;;;5052504;28;20217;-69
2022/11/20 05:23:02;;;;;;;18.15;15.15;;;5.40;99.90;;;;;;5048748;28;20181;-69
2022/11/20 05:25:28;;;;;;;19.40;14.70;;;5.30;99.90;;;;;;5048125;28;20760;-69
2022/11/20 05:27:54;;;;;;;18.30;14.50;;;5.30;99.90;;;;;;5035355;28;20231;-69
2022/11/20 05:30:19;;;;;;;20.40;15.30;;;5.30;99.90;;;;;;5052300;28;20431;-69
2022/11/20 05:32:45;;;;;;;17.20;14.30;;;5.30;99.90;;;;;;5032932;28;20885;-69
2022/11/20 05:35:11;;;;;;;18.77;13.97;;;5.30;99.90;;;;;;5048212;28;20189;-69
2022/11/20 05:37:36;;;;;;;20.53;15.23;;;5.30;99.90;;;;;;5052577;28;20201;-69
2022/11/20 05:40:02;;;;;;;17.07;14.80;;;5.30;99.90;;;;;;5052464;28;20209;-69
2022/11/20 05:42:30;;;;;;;17.97;13.90;;;5.40;99.90;;;;;;5032497;28;20184;-70
2022/11/20 05:45:00;;;;;;;20.65;15.60;;;5.30;99.90;;;;;;5047261;28;20459;-69
2022/11/20 05:47:32;;;;;;;20.08;14.70;;;5.30;99.90;;;;;;5032337;28;20186;-69
2022/11/20 05:49:58;;;;;;;20.52;15.40;;;5.40;99.90;;;;;;5032755;28;20181;-69
2022/11/20 05:52:24;;;;;;;19.37;14.40;;;5.40;99.90;;;;;;5042395;28;20597;-69
2022/11/20 05:54:50;;;;;;;19.67;15.10;;;5.40;99.90;;;;;;5047445;28;20784;-69
2022/11/20 05:57:16;;;;;;;19.50;15.10;;;5.40;99.90;;;;;;5051855;28;20173;-69
2022/11/20 05:59:42;;;;;;;18.08;14.57;;;5.40;99.90;;;;;;5052565;28;20217;-69
2022/11/20 06:02:08;;;;;;;25.40;15.90;;;5.50;99.90;;;;;;5051880;28;20178;-74
2022/11/20 06:04:34;;;;;;;21.53;14.93;;;5.50;99.90;;;;;;5039865;28;20251;-69
2022/11/20 06:06:59;;;;;;;18.97;14.90;;;5.50;99.90;;;;;;5051800;28;20466;-69
2022/11/20 06:09:25;;;;;;;18.70;14.80;;;5.50;99.90;;;;;;5050684;28;20194;-69
2022/11/20 06:11:51;;;;;;;17.60;14.33;;;5.50;99.90;;;;;;5052522;28;20255;-70
2022/11/20 06:14:16;;;;;;;19.40;15.43;;;5.50;99.90;;;;;;5044449;28;20649;-69
2022/11/20 06:16:42;;;;;;;16.60;14.60;;;5.50;99.90;;;;;;5034622;28;20626;-70
2022/11/20 06:19:07;;;;;;;22.00;17.33;;;5.40;99.90;;;;;;5051885;28;20209;-74
2022/11/20 06:21:33;;;;;;;22.27;17.13;;;5.40;99.90;;;;;;5050259;28;20173;-69
2022/11/20 06:23:59;;;;;;;20.00;16.00;;;5.40;99.90;;;;;;5042773;28;20446;-69
2022/11/20 06:26:27;;;;;;;24.07;16.47;;;5.40;99.90;;;;;;5013853;28;20179;-69
2022/11/20 06:28:55;;;;;;;18.10;15.75;;;5.40;99.90;;;;;;5032051;28;20183;-69
2022/11/20 06:31:24;;;;;;;19.23;16.15;;;5.40;99.90;;;;;;5031667;28;20193;-69
2022/11/20 06:33:50;;;;;;;24.00;16.35;;;5.40;99.90;;;;;;5040135;28;20206;-71
2022/11/20 06:36:18;;;;;;;18.17;15.32;;;5.40;99.90;;;;;;5031201;28;20189;-70
2022/11/20 06:38:44;;;;;;;19.02;16.83;;;5.40;99.90;;;;;;5032219;28;20202;-69
2022/11/20 06:41:13;;;;;;;22.02;17.70;;;5.40;99.90;;;;;;5017525;28;20189;-74
2022/11/20 06:43:38;;;;;;;28.27;16.42;;;5.30;99.90;;;;;;5045041;28;20592;-71
2022/11/20 06:46:04;;;;;;;20.57;15.73;;;5.30;99.90;;;;;;5050968;28;20264;-68
2022/11/20 06:48:30;;;;;;;19.37;14.80;;;5.30;99.90;;;;;;5047732;28;20626;-70
2022/11/20 06:50:57;;;;;;;24.55;17.17;;;5.30;99.90;;;;;;5035027;28;20406;-69
2022/11/20 06:53:23;;;;;;;18.92;15.55;;;5.30;99.90;;;;;;5049116;28;20182;-70
2022/11/20 06:55:50;;;;;;;21.48;16.25;;;5.30;99.90;;;;;;5052307;28;20182;-68
2022/11/20 06:58:16;;;;;;;20.17;15.48;;;5.30;99.90;;;;;;5037299;28;20192;-69
2022/11/20 07:00:42;;;;;;;23.52;16.88;;;5.20;99.90;;;;;;5055830;28;20531;-69
2022/11/20 07:03:10;;;;;;;20.52;15.60;;;5.20;99.90;;;;;;5051449;28;20177;-73
2022/11/20 07:05:36;;;;;;;21.30;15.85;;;5.20;99.90;;;;;;5043689;28;20178;-69
2022/11/20 07:08:03;;;;;;;18.85;14.68;;;5.20;99.90;;;;;;5043546;28;20233;-69
2022/11/20 07:10:29;;;;;;;18.95;14.90;;;5.20;99.90;;;;;;5049193;28;20737;-69
2022/11/20 07:12:55;;;;;;;21.50;16.27;;;5.20;99.90;;;;;;5047052;28;20193;-69
2022/11/20 07:15:22;;;;;;;20.55;16.25;;;5.20;99.90;;;;;;5043833;28;20208;-69
2022/11/20 07:17:48;;;;;;;17.77;14.98;;;5.10;99.90;;;;;;5053331;28;20532;-68
2022/11/20 07:20:14;;;;;;;23.93;15.70;;;5.10;99.90;;;;;;5049965;28;20267;-68
2022/11/20 07:22:40;;;;;;;19.70;15.90;;;5.10;99.90;;;;;;5050020;28;20304;-69
2022/11/20 07:25:07;;;;;;;20.57;16.63;;;5.10;99.90;;;;;;5046888;28;20258;-68
2022/11/20 07:27:35;;;;;;;21.60;16.60;;;5.10;99.90;;;;;;5034736;28;20392;-68
2022/11/20 07:30:03;;;;;;;19.65;15.40;;;5.10;99.90;;;;;;5048190;28;20206;-69
2022/11/20 07:32:28;;;;;;;18.95;15.23;;;5.10;99.90;;;;;;5047474;28;20213;-70
2022/11/20 07:34:54;;;;;;;20.20;15.70;;;5.10;99.90;;;;;;5051892;28;20217;-69
2022/11/20 07:37:21;;;;;;;22.27;17.10;;;5.10;99.90;;;;;;5042079;28;20588;-69
2022/11/20 07:39:46;;;;;;;21.20;16.10;;;5.10;99.90;;;;;;5044097;28;20205;-69
2022/11/20 07:42:12;;;;;;;22.57;16.30;;;5.10;99.90;;;;;;5052375;28;20204;-75
2022/11/20 07:44:38;;;;;;;20.70;15.90;;;5.20;99.90;;;;;;5038149;28;20265;-69
2022/11/20 07:47:04;;;;;;;20.88;16.55;;;5.20;99.90;;;;;;5045478;28;20473;-69
2022/11/20 07:49:30;;;;;;;18.13;16.03;;;5.20;99.90;;;;;;5053424;28;20189;-69
2022/11/20 07:51:56;;;;;;;22.07;17.10;;;5.20;99.90;;;;;;5049077;28;20406;-70
2022/11/20 07:54:22;;;;;;;19.37;16.77;;;5.10;99.90;;;;;;5039694;28;20789;-68
2022/11/20 07:56:48;;;;;;;22.17;16.23;;;5.10;99.90;;;;;;5047051;28;20174;-69
2022/11/20 07:59:15;;;;;;;18.88;15.80;;;5.10;99.90;;;;;;5052020;28;20224;-73
2022/11/20 08:01:41;;;;;;;19.85;17.00;;;5.10;99.90;;;;;;5054949;28;20656;-68
2022/11/20 08:04:07;;;;;;;23.10;16.58;;;5.10;99.90;;;;;;5047854;28;20531;-69
2022/11/20 08:06:33;;;;;;;23.13;16.50;;;5.20;99.90;;;;;;5053330;28;20387;-69
2022/11/20 08:08:59;;;;;;;19.50;16.80;;;5.20;99.90;;;;;;5036963;28;20654;-69
2022/11/20 08:14:12;;;;;;;23.00;17.60;;;5.30;99.90;;;;;;5044468;28;20190;-69
2022/11/20 08:16:46;;;;;;;21.13;16.17;;;5.30;99.90;;;;;;5050501;28;20216;-69
2022/11/20 08:19:14;;;;;;;19.80;16.27;;;5.40;99.90;;;;;;5042811;28;20244;-75
2022/11/20 08:21:40;;;;;;;20.23;16.90;;;5.40;99.90;;;;;;5050829;28;20212;-69
2022/11/20 08:24:06;;;;;;;20.25;16.83;;;5.50;99.90;;;;;;5043934;28;20198;-69
2022/11/20 08:26:33;;;;;;;18.48;15.30;;;5.50;99.90;;;;;;5044527;28;20223;-69
2022/11/20 08:28:59;;;;;;;22.30;16.65;;;5.50;99.90;;;;;;5051735;28;20186;-69
2022/11/20 08:31:26;;;;;;;21.53;17.23;;;5.60;99.90;;;;;;5042316;28;20190;-69
2022/11/20 08:33:52;;;;;;;22.23;16.70;;;5.70;99.90;;;;;;5045354;28;20747;-69
2022/11/20 08:36:19;;;;;;;24.75;18.58;;;5.70;99.90;;;;;;5051619;28;20265;-70
2022/11/20 08:38:53;;;;;;;20.42;17.02;;;5.80;99.90;;;;;;5033607;28;20273;-69
2022/11/20 08:41:26;;;;;;;23.38;17.27;;;5.90;99.90;;;;;;5046924;28;20205;-68
2022/11/20 08:43:55;;;;;;;20.53;16.50;;;6.20;99.90;;;;;;5023093;28;20272;-69
2022/11/20 08:46:21;;;;;;;21.10;16.43;;;7.20;99.90;;;;;;5049571;28;20446;-69
2022/11/20 08:48:47;;;;;;;19.27;15.10;;;8.50;99.90;;;;;;5039128;28;20425;-68
2022/11/20 08:51:13;;;;;;;17.60;14.50;;;9.80;98.20;;;;;;5046608;28;20444;-73
2022/11/20 08:53:39;;;;;;;15.53;13.93;;;11.10;94.50;;;;;;5041122;28;20904;-72
2022/11/20 08:56:05;;;;;;;16.00;14.13;;;12.20;99.90;;;;;;5043807;28;20226;-72
2022/11/20 08:58:31;;;;;;;17.03;15.23;;;13.40;99.90;;;;;;5040906;28;20430;-73
2022/11/20 09:00:57;;;;;;;16.17;14.47;;;14.30;99.90;;;;;;5046303;28;20457;-74
2022/11/20 09:03:22;;;;;;;17.00;15.20;;;15.00;96.90;;;;;;5040417;28;20266;-73
2022/11/20 09:05:48;;;;;;;16.90;15.20;;;15.80;95.20;;;;;;5042245;28;20213;-74
2022/11/20 09:08:14;;;;;;;16.37;14.77;;;16.60;87.70;;;;;;5042502;28;20285;-77
2022/11/20 09:10:40;;;;;;;18.17;16.30;;;17.40;83.30;;;;;;5043194;28;20425;-73
2022/11/20 09:13:06;;;;;;;17.87;16.07;;;18.30;79.20;;;;;;5040509;28;20909;-72
2022/11/20 09:15:33;;;;;;;16.50;15.00;;;19.10;74.30;;;;;;5039261;28;20247;-73
2022/11/20 09:18:02;;;;;;;17.90;16.00;;;19.80;66.30;;;;;;5039371;28;20429;-72
2022/11/20 09:20:29;;;;;;;18.00;16.30;;;20.40;61.30;;;;;;5040978;28;20472;-73
2022/11/20 09:22:56;;;;;;;18.10;16.40;;;20.90;61.30;;;;;;5043402;28;20487;-72
2022/11/20 09:25:21;;;;;;;18.37;16.67;;;21.20;58.40;;;;;;5042578;28;20434;-72
2022/11/20 09:27:47;;;;;;;18.70;16.80;;;21.40;56.80;;;;;;5045781;28;20911;-73
2022/11/20 09:30:15;;;;;;;18.47;16.80;;;21.60;58.80;;;;;;5007650;28;20190;-75
2022/11/20 09:32:41;;;;;;;17.50;15.90;;;21.50;58.00;;;;;;5029902;28;20436;-71
2022/11/20 09:35:08;;;;;;;16.80;15.40;;;21.50;55.90;;;;;;5043316;28;20469;-72
2022/11/20 09:37:33;;;;;;;18.23;16.57;;;21.30;54.00;;;;;;5038128;28;20437;-72
2022/11/20 09:39:59;;;;;;;18.93;17.30;;;20.90;53.70;;;;;;5041316;28;20461;-71
2022/11/20 09:43:01;;;;;;;17.47;15.97;;;20.40;49.80;;;;;;5038839;28;20213;-68
2022/11/20 09:46:00;;;;;;;16.70;15.20;;;19.60;49.50;;;;;;5042786;28;20181;-71
2022/11/20 09:48:31;;;;;;;16.43;14.83;;;18.40;49.70;;;;;;5026131;28;20511;-68
2022/11/20 09:51:31;;;;;;;573.37;428.37;;;17.50;50.10;;;;;;5043099;28;20882;-68
2022/11/20 09:53:57;;;;;;;47.50;35.40;;;16.60;52.20;;;;;;5040833;28;20501;-68
2022/11/20 09:56:23;;;;;;;22.77;20.00;;;15.70;52.10;;;;;;5033458;28;20806;-68
2022/11/20 09:58:51;;;;;;;16.30;14.80;;;14.90;53.80;;;;;;5044224;28;20184;-68
2022/11/20 10:01:28;;;;;;;16.13;14.43;;;14.20;55.70;;;;;;5036628;28;20471;-72
2022/11/20 10:04:20;;;;;;;15.50;13.90;;;13.60;57.20;;;;;;5032857;28;20974;-69
2022/11/20 10:06:56;;;;;;;15.57;14.10;;;13.00;59.00;;;;;;5049161;28;20530;-68
2022/11/20 10:09:32;;;;;;;14.80;13.37;;;12.40;60.90;;;;;;5040536;28;20417;-68
2022/11/20 10:12:16;;;;;;;14.70;13.10;;;11.90;62.00;;;;;;5052343;28;20404;-68
2022/11/20 10:15:38;;;;;;;16.67;14.23;;;11.40;64.10;;;;;;5041377;28;20444;-68
2022/11/20 10:18:16;;;;;;;16.00;14.40;;;11.00;67.60;;;;;;5029619;28;20963;-68
2022/11/20 10:21:09;;;;;;;18.60;15.20;;;10.60;71.60;;;;;;5033933;28;21005;-68
2022/11/20 10:23:45;;;;;;;15.53;13.80;;;10.30;74.30;;;;;;5039498;28;20434;-70
2022/11/20 10:26:26;;;;;;;16.63;13.17;;;10.00;78.70;;;;;;5051245;28;20444;-68
2022/11/20 10:29:07;;;;;;;525.77;298.77;;;9.80;81.20;;;;;;5023524;28;20454;-68
2022/11/20 10:31:37;;;;;;;26.93;20.70;;;9.70;83.30;;;;;;5046982;28;20478;-67
2022/11/20 10:34:18;;;;;;;16.03;12.93;;;9.50;83.20;;;;;;5035306;28;20428;-68
2022/11/20 10:36:50;;;;;;;16.50;13.60;;;9.40;84.20;;;;;;5040288;28;20478;-68
2022/11/20 10:39:42;;;;;;;15.00;13.37;;;9.30;86.00;;;;;;5040079;28;20455;-69
2022/11/20 10:42:14;;;;;;;17.43;13.50;;;9.10;88.60;;;;;;5045574;28;20476;-68
2022/11/20 10:45:01;;;;;;;15.13;12.30;;;9.10;89.60;;;;;;5025274;28;20486;-70
2022/11/20 10:47:29;;;;;;;14.20;12.40;;;8.90;90.10;;;;;;5046195;28;20449;-69
2022/11/20 10:50:00;;;;;;;13.53;12.07;;;8.90;90.10;;;;;;5037869;28;20419;-70
2022/11/20 10:52:44;;;;;;;15.57;12.53;;;8.80;90.80;;;;;;5042521;28;20437;-69
2022/11/20 10:55:28;;;;;;;13.23;11.83;;;8.80;90.90;;;;;;5029156;28;20934;-68
2022/11/20 10:58:11;;;;;;;14.57;12.27;;;8.70;90.60;;;;;;5025421;28;20404;-68
2022/11/20 11:00:37;;;;;;;12.23;10.67;;;8.70;91.70;;;;;;5041691;28;20455;-68
2022/11/20 11:03:07;;;;;;;13.10;11.60;;;8.70;91.90;;;;;;5040482;28;20425;-70
2022/11/20 11:05:42;;;;;;;12.93;10.90;;;8.60;91.80;;;;;;5036893;28;20539;-71
2022/11/20 11:08:14;;;;;;;14.77;11.50;;;8.60;92.10;;;;;;5038150;28;20459;-71
2022/11/20 11:10:46;;;;;;;12.63;11.13;;;8.60;92.30;;;;;;5044667;28;20436;-69
2022/11/20 11:13:22;;;;;;;11.70;10.60;;;8.50;91.90;;;;;;5041759;28;20436;-70
2022/11/20 11:15:48;;;;;;;12.53;11.00;;;8.60;92.50;;;;;;5043486;28;20438;-69
2022/11/20 11:18:24;;;;;;;15.63;12.53;;;8.40;93.00;;;;;;5045780;28;20431;-69
2022/11/20 11:20:51;;;;;;;11.40;10.23;;;8.40;93.60;;;;;;5042010;28;20465;-69
2022/11/20 11:23:46;;;;;;;13.03;11.57;;;8.40;93.80;;;;;;5042647;28;20433;-73
2022/11/20 11:26:23;;;;;;;12.37;11.17;;;8.30;93.20;;;;;;5033242;28;20483;-69
2022/11/20 11:29:03;;;;;;;289.60;183.87;;;8.30;93.70;;;;;;5021227;28;20466;-69
2022/11/20 11:31:31;;;;;;;97.30;56.53;;;8.20;94.60;;;;;;5020163;28;20467;-68
2022/11/20 11:34:12;;;;;;;19.20;13.50;;;8.30;94.40;;;;;;5039491;28;20421;-69
2022/11/20 11:36:41;;;;;;;11.90;10.70;;;8.30;94.10;;;;;;5045823;28;20436;-69
2022/11/20 11:39:14;;;;;;;13.20;11.73;;;8.30;93.50;;;;;;5037264;28;20437;-69
2022/11/20 11:41:41;;;;;;;12.10;10.57;;;8.30;93.60;;;;;;5008314;28;20993;-69
2022/11/20 11:47:21;;;;;;;12.53;11.23;;;8.40;93.90;;;;;;5043279;28;20443;-69
2022/11/20 11:49:46;;;;;;;11.77;10.47;;;8.40;93.70;;;;;;5049560;28;20492;-69
2022/11/20 11:52:20;;;;;;;11.17;10.07;;;8.40;93.80;;;;;;5044642;28;20900;-70
2022/11/20 11:54:54;;;;;;;11.87;9.80;;;8.40;93.50;;;;;;5041683;28;20178;-69
2022/11/20 11:57:37;;;;;;;11.83;10.60;;;8.50;92.60;;;;;;5026502;28;20774;-69
2022/11/20 12:00:19;;;;;;;12.47;11.17;;;8.50;93.20;;;;;;5048914;28;20506;-69
2022/11/20 12:02:44;;;;;;;11.73;9.87;;;8.50;94.10;;;;;;5026786;28;20494;-69
2022/11/20 12:05:18;;;;;;;636.37;378.60;;;8.50;93.90;;;;;;5045449;28;20428;-69
2022/11/20 12:07:53;;;;;;;45.23;27.67;;;8.60;93.30;;;;;;5044377;28;20224;-68
2022/11/20 12:10:38;;;;;;;15.73;11.63;;;8.50;93.10;;;;;;5047602;28;20458;-72
2022/11/20 12:13:30;;;;;;;11.17;9.97;;;8.60;93.30;;;;;;5027220;28;20503;-68
2022/11/20 12:15:56;;;;;;;12.60;10.43;;;8.60;93.10;;;;;;5048034;28;20427;-68
2022/11/20 12:18:23;;;;;;;11.43;9.70;;;8.70;94.50;;;;;;5036731;28;20921;-69
2022/11/20 12:21:06;;;;;;;10.93;9.83;;;8.70;93.20;;;;;;5000827;28;20309;-68
2022/11/20 12:23:38;;;;;;;11.53;9.63;;;8.70;92.30;;;;;;5039957;28;20854;-70
2022/11/20 12:26:17;;;;;;;11.43;9.37;;;8.70;91.70;;;;;;5046075;28;20436;-68
2022/11/20 12:29:02;;;;;;;11.57;8.83;;;8.70;92.10;;;;;;5036257;28;20418;-69
2022/11/20 12:32:06;;;;;;;9.67;8.60;;;8.70;91.70;;;;;;5046664;28;20461;-68
2022/11/20 12:34:53;;;;;;;11.07;9.87;;;8.60;91.50;;;;;;5035874;28;20409;-69
2022/11/20 12:37:33;;;;;;;9.60;8.67;;;8.60;92.00;;;;;;5021855;28;20436;-72
2022/11/20 12:40:11;;;;;;;10.90;9.50;;;8.60;92.30;;;;;;5022226;28;20474;-69
2022/11/20 12:45:54;;;;;;;9.93;8.93;;;8.70;92.40;;;;;;5018203;28;20548;-70
2022/11/20 12:48:23;;;;;;;10.60;9.20;;;8.50;92.10;;;;;;5043776;28;20442;-72
2022/11/20 12:51:26;;;;;;;11.87;9.17;;;8.50;92.40;;;;;;5033153;28;20421;-69
2022/11/20 12:54:18;;;;;;;10.23;9.30;;;8.50;92.40;;;;;;5037817;28;20482;-68
2022/11/20 12:56:58;;;;;;;10.80;9.70;;;8.30;92.50;;;;;;4998416;28;20983;-69
2022/11/20 12:59:55;;;;;;;13.00;11.63;;;8.30;93.10;;;;;;5039603;28;20816;-68
2022/11/20 13:02:54;;;;;;;14.40;12.23;;;8.20;93.10;;;;;;5032166;28;20448;-71
2022/11/20 13:05:32;;;;;;;14.57;12.00;;;8.20;93.30;;;;;;5042725;28;20464;-70